Terminal Aerodrome Forecast
Issued by NWS

Home | Current Version | Previous Version | Text Only | Print | Product List | Glossary On
Versions: 1 2 3 4 5 6 7 8 9 10 11 12 13 14
000
FTUS41 KBTV 280520
TAFMPV
TAF
KMPV 280520Z 2806/2906 14006KT P6SM SCT100
      TEMPO 2808/2812 3SM BR BKN012
     FM281500 21009KT P6SM VCSH BKN050
     FM282000 30012G22KT P6SM BKN040
     FM290000 31006KT P6SM SCT045=

USA.gov is the U.S. government's official web portal to all federal, state and local government web resources and services.